sensor_id;sensor_type;location;lat;lon;timestamp;pressure;altitude;pressure_sealevel;temperature;humidity
46638;BME280;32365;46.938;7.390;2023-02-21T07:05:10;95747.00;;;0.61;97.33
46638;BME280;32365;46.938;7.390;2023-02-21T07:07:37;95757.84;;;0.63;96.57
46638;BME280;32365;46.938;7.390;2023-02-21T07:10:04;95757.66;;;0.48;97.25
46638;BME280;32365;46.938;7.390;2023-02-21T07:12:31;95753.81;;;0.44;97.36
46638;BME280;32365;46.938;7.390;2023-02-21T07:14:57;95762.41;;;0.43;98.25
46638;BME280;32365;46.938;7.390;2023-02-21T07:17:24;95756.97;;;0.29;97.44
46638;BME280;32365;46.938;7.390;2023-02-21T07:19:50;95750.66;;;0.42;97.66
46638;BME280;32365;46.938;7.390;2023-02-21T07:22:18;95761.03;;;0.57;97.67
46638;BME280;32365;46.938;7.390;2023-02-21T07:24:50;95757.34;;;0.51;97.45
46638;BME280;32365;46.938;7.390;2023-02-21T07:27:16;95761.03;;;0.57;97.50
46638;BME280;32365;46.938;7.390;2023-02-21T07:29:45;95756.25;;;0.54;97.75
46638;BME280;32365;46.938;7.390;2023-02-21T07:32:11;95750.84;;;0.73;97.70
46638;BME280;32365;46.938;7.390;2023-02-21T07:34:38;95754.22;;;0.90;97.50
46638;BME280;32365;46.938;7.390;2023-02-21T07:37:04;95753.31;;;1.00;97.13
46638;BME280;32365;46.938;7.390;2023-02-21T07:39:32;95755.25;;;1.14;97.34
46638;BME280;32365;46.938;7.390;2023-02-21T07:41:59;95759.53;;;1.14;96.03
46638;BME280;32365;46.938;7.390;2023-02-21T07:44:25;95760.63;;;1.69;96.99
46638;BME280;32365;46.938;7.390;2023-02-21T07:46:54;95765.75;;;3.12;97.79
46638;BME280;32365;46.938;7.390;2023-02-21T07:49:21;95760.69;;;4.40;84.73
46638;BME280;32365;46.938;7.390;2023-02-21T07:51:48;95754.25;;;5.46;77.14
46638;BME280;32365;46.938;7.390;2023-02-21T07:54:14;95755.03;;;7.07;72.11
46638;BME280;32365;46.938;7.390;2023-02-21T07:56:43;95757.81;;;7.26;67.83
46638;BME280;32365;46.938;7.390;2023-02-21T07:59:09;95757.78;;;9.11;62.80
46638;BME280;32365;46.938;7.390;2023-02-21T08:01:36;95751.25;;;9.33;59.67
46638;BME280;32365;46.938;7.390;2023-02-21T08:04:02;95747.03;;;8.75;63.16
46638;BME280;32365;46.938;7.390;2023-02-21T08:06:29;95743.09;;;9.36;59.41
46638;BME280;32365;46.938;7.390;2023-02-21T08:08:56;95738.81;;;9.49;57.63
46638;BME280;32365;46.938;7.390;2023-02-21T08:11:22;95747.78;;;9.72;58.01
46638;BME280;32365;46.938;7.390;2023-02-21T08:13:50;95739.38;;;9.76;58.68
46638;BME280;32365;46.938;7.390;2023-02-21T08:16:17;95747.34;;;9.24;60.10
46638;BME280;32365;46.938;7.390;2023-02-21T08:18:46;95743.78;;;9.94;57.40
46638;BME280;32365;46.938;7.390;2023-02-21T08:21:15;95737.22;;;9.22;58.51
46638;BME280;32365;46.938;7.390;2023-02-21T08:23:42;95748.22;;;8.79;61.17
46638;BME280;32365;46.938;7.390;2023-02-21T08:26:08;95745.00;;;9.16;59.95
46638;BME280;32365;46.938;7.390;2023-02-21T08:28:34;95742.78;;;9.26;61.08
46638;BME280;32365;46.938;7.390;2023-02-21T08:31:03;95745.72;;;11.04;54.23
46638;BME280;32365;46.938;7.390;2023-02-21T08:33:30;95737.53;;;12.96;48.32
46638;BME280;32365;46.938;7.390;2023-02-21T08:35:56;95736.25;;;13.27;47.39
46638;BME280;32365;46.938;7.390;2023-02-21T08:38:23;95733.28;;;10.63;54.11
46638;BME280;32365;46.938;7.390;2023-02-21T08:40:49;95729.16;;;9.63;57.46
46638;BME280;32365;46.938;7.390;2023-02-21T08:43:17;95726.47;;;8.55;62.53
46638;BME280;32365;46.938;7.390;2023-02-21T08:45:43;95721.88;;;8.05;66.62
46638;BME280;32365;46.938;7.390;2023-02-21T08:48:11;95729.16;;;8.28;66.57
46638;BME280;32365;46.938;7.390;2023-02-21T08:50:38;95724.69;;;8.62;65.26
46638;BME280;32365;46.938;7.390;2023-02-21T08:53:04;95720.75;;;8.46;64.82
46638;BME280;32365;46.938;7.390;2023-02-21T08:55:31;95716.97;;;8.55;65.46
46638;BME280;32365;46.938;7.390;2023-02-21T08:57:57;95716.13;;;8.02;66.94
46638;BME280;32365;46.938;7.390;2023-02-21T09:00:24;95715.72;;;8.06;67.97
46638;BME280;32365;46.938;7.390;2023-02-21T09:02:53;95716.16;;;8.55;67.28
46638;BME280;32365;46.938;7.390;2023-02-21T09:05:24;95712.38;;;9.21;64.65
46638;BME280;32365;46.938;7.390;2023-02-21T09:07:52;95708.22;;;10.64;58.68
46638;BME280;32365;46.938;7.390;2023-02-21T09:10:20;95716.25;;;10.37;59.15
46638;BME280;32365;46.938;7.390;2023-02-21T09:12:47;95709.78;;;11.19;55.62
46638;BME280;32365;46.938;7.390;2023-02-21T09:15:13;95714.22;;;12.26;54.36
46638;BME280;32365;46.938;7.390;2023-02-21T09:17:40;95713.25;;;12.73;52.31
46638;BME280;32365;46.938;7.390;2023-02-21T09:20:08;95707.78;;;11.93;53.94
46638;BME280;32365;46.938;7.390;2023-02-21T09:22:37;95707.78;;;12.57;51.97
46638;BME280;32365;46.938;7.390;2023-02-21T09:25:03;95705.75;;;11.95;52.66
46638;BME280;32365;46.938;7.390;2023-02-21T09:27:31;95707.84;;;12.74;51.61
46638;BME280;32365;46.938;7.390;2023-02-21T09:30:04;95715.84;;;13.19;48.13
46638;BME280;32365;46.938;7.390;2023-02-21T09:32:30;95705.41;;;13.87;48.25
46638;BME280;32365;46.938;7.390;2023-02-21T09:34:57;95698.22;;;13.38;47.23
46638;BME280;32365;46.938;7.390;2023-02-21T09:37:24;95699.59;;;13.12;48.93
46638;BME280;32365;46.938;7.390;2023-02-21T09:39:52;95694.47;;;14.52;45.47
46638;BME280;32365;46.938;7.390;2023-02-21T09:42:20;95689.00;;;13.30;48.63
46638;BME280;32365;46.938;7.390;2023-02-21T09:44:48;95687.66;;;13.28;48.48
46638;BME280;32365;46.938;7.390;2023-02-21T09:47:20;95682.19;;;14.47;45.08
46638;BME280;32365;46.938;7.390;2023-02-21T09:49:54;95676.41;;;13.78;47.12
46638;BME280;32365;46.938;7.390;2023-02-21T09:52:33;95677.31;;;13.67;47.82
46638;BME280;32365;46.938;7.390;2023-02-21T09:55:04;95679.06;;;15.00;45.03
46638;BME280;32365;46.938;7.390;2023-02-21T09:57:34;95672.16;;;15.16;44.69
46638;BME280;32365;46.938;7.390;2023-02-21T10:00:05;95666.03;;;15.37;43.77
46638;BME280;32365;46.938;7.390;2023-02-21T10:02:40;95663.88;;;16.15;41.80
46638;BME280;32365;46.938;7.390;2023-02-21T10:05:17;95667.84;;;14.99;43.36
46638;BME280;32365;46.938;7.390;2023-02-21T10:07:55;95658.03;;;16.92;39.86
46638;BME280;32365;46.938;7.390;2023-02-21T10:10:29;95654.13;;;17.20;37.98
46638;BME280;32365;46.938;7.390;2023-02-21T10:13:04;95657.66;;;16.37;39.98
46638;BME280;32365;46.938;7.390;2023-02-21T10:15:39;95649.22;;;15.61;41.55
46638;BME280;32365;46.938;7.390;2023-02-21T10:18:15;95643.13;;;17.03;39.61
46638;BME280;32365;46.938;7.390;2023-02-21T10:20:48;95636.03;;;17.55;37.00
46638;BME280;32365;46.938;7.390;2023-02-21T10:23:18;95632.47;;;18.56;36.46
46638;BME280;32365;46.938;7.390;2023-02-21T10:25:50;95631.09;;;18.69;34.96
46638;BME280;32365;46.938;7.390;2023-02-21T10:28:21;95624.97;;;18.79;34.82
46638;BME280;32365;46.938;7.390;2023-02-21T10:30:51;95622.88;;;20.37;32.85
46638;BME280;32365;46.938;7.390;2023-02-21T10:33:19;95616.78;;;19.50;34.68
46638;BME280;32365;46.938;7.390;2023-02-21T10:35:45;95618.69;;;18.35;36.79
46638;BME280;32365;46.938;7.390;2023-02-21T10:38:15;95617.94;;;19.38;33.87
46638;BME280;32365;46.938;7.390;2023-02-21T10:40:46;95611.69;;;20.07;33.41
46638;BME280;32365;46.938;7.390;2023-02-21T10:43:16;95604.75;;;19.44;33.23
46638;BME280;32365;46.938;7.390;2023-02-21T10:45:48;95601.97;;;19.35;33.40
46638;BME280;32365;46.938;7.390;2023-02-21T10:48:17;95599.63;;;18.24;37.00
46638;BME280;32365;46.938;7.390;2023-02-21T10:50:50;95598.66;;;19.24;34.11
46638;BME280;32365;46.938;7.390;2023-02-21T10:53:29;95591.16;;;20.67;30.83
46638;BME280;32365;46.938;7.390;2023-02-21T10:56:19;95582.16;;;20.35;31.25
46638;BME280;32365;46.938;7.390;2023-02-21T10:58:48;95590.25;;;20.19;32.72
46638;BME280;32365;46.938;7.390;2023-02-21T11:01:17;95588.88;;;23.46;28.20
46638;BME280;32365;46.938;7.390;2023-02-21T11:03:49;95575.34;;;25.02;25.08
46638;BME280;32365;46.938;7.390;2023-02-21T11:06:25;95568.09;;;24.82;23.91
46638;BME280;32365;46.938;7.390;2023-02-21T11:08:53;95566.44;;;25.16;24.67
46638;BME280;32365;46.938;7.390;2023-02-21T11:11:36;95555.34;;;24.57;25.29
46638;BME280;32365;46.938;7.390;2023-02-21T11:14:20;95552.97;;;22.00;29.88
46638;BME280;32365;46.938;7.390;2023-02-21T11:17:12;95544.28;;;24.64;26.08
46638;BME280;32365;46.938;7.390;2023-02-21T11:19:51;95538.13;;;20.59;31.56
46638;BME280;32365;46.938;7.390;2023-02-21T11:22:21;95529.47;;;24.63;25.94
46638;BME280;32365;46.938;7.390;2023-02-21T11:25:02;95516.53;;;25.87;24.27
46638;BME280;32365;46.938;7.390;2023-02-21T11:27:32;95518.09;;;24.80;25.83
46638;BME280;32365;46.938;7.390;2023-02-21T11:30:03;95509.81;;;21.59;29.92
46638;BME280;32365;46.938;7.390;2023-02-21T11:32:37;95506.56;;;24.85;24.91
46638;BME280;32365;46.938;7.390;2023-02-21T11:35:14;95509.56;;;21.83;29.98
46638;BME280;32365;46.938;7.390;2023-02-21T11:37:48;95508.34;;;21.39;30.56
46638;BME280;32365;46.938;7.390;2023-02-21T11:40:28;95498.13;;;22.25;29.11
46638;BME280;32365;46.938;7.390;2023-02-21T11:43:10;95494.28;;;24.71;25.47
46638;BME280;32365;46.938;7.390;2023-02-21T11:45:42;95492.59;;;26.38;23.16
46638;BME280;32365;46.938;7.390;2023-02-21T11:48:14;95487.44;;;26.54;23.04
46638;BME280;32365;46.938;7.390;2023-02-21T11:50:45;95479.66;;;23.02;26.80
46638;BME280;32365;46.938;7.390;2023-02-21T11:53:23;95475.00;;;20.92;29.88
46638;BME280;32365;46.938;7.390;2023-02-21T11:55:56;95464.63;;;24.39;26.31
46638;BME280;32365;46.938;7.390;2023-02-21T11:58:26;95456.78;;;22.11;28.92
46638;BME280;32365;46.938;7.390;2023-02-21T12:01:01;95461.81;;;22.22;27.82
46638;BME280;32365;46.938;7.390;2023-02-21T12:03:45;95454.66;;;21.77;29.12
46638;BME280;32365;46.938;7.390;2023-02-21T12:06:22;95454.44;;;22.87;27.82
46638;BME280;32365;46.938;7.390;2023-02-21T12:08:54;95442.09;;;24.16;26.35
46638;BME280;32365;46.938;7.390;2023-02-21T12:11:43;95438.53;;;26.09;23.31
46638;BME280;32365;46.938;7.390;2023-02-21T12:14:28;95437.50;;;23.37;27.08
46638;BME280;32365;46.938;7.390;2023-02-21T12:17:10;95430.69;;;23.36;27.79
46638;BME280;32365;46.938;7.390;2023-02-21T12:19:50;95418.69;;;24.92;25.52
46638;BME280;32365;46.938;7.390;2023-02-21T12:22:32;95415.91;;;24.88;25.09
46638;BME280;32365;46.938;7.390;2023-02-21T12:25:12;95417.00;;;25.47;24.39
46638;BME280;32365;46.938;7.390;2023-02-21T12:27:46;95419.03;;;26.26;23.95
46638;BME280;32365;46.938;7.390;2023-02-21T12:30:43;95419.66;;;24.31;26.44
46638;BME280;32365;46.938;7.390;2023-02-21T12:33:24;95414.50;;;26.05;23.71
46638;BME280;32365;46.938;7.390;2023-02-21T12:36:08;95408.47;;;23.46;26.06
46638;BME280;32365;46.938;7.390;2023-02-21T12:38:47;95405.41;;;23.96;26.74
46638;BME280;32365;46.938;7.390;2023-02-21T12:41:25;95397.22;;;23.14;26.79
46638;BME280;32365;46.938;7.390;2023-02-21T12:43:59;95395.00;;;24.48;24.80
46638;BME280;32365;46.938;7.390;2023-02-21T12:46:31;95396.19;;;23.41;26.95
46638;BME280;32365;46.938;7.390;2023-02-21T12:49:09;95391.47;;;25.12;25.19
46638;BME280;32365;46.938;7.390;2023-02-21T12:51:43;95393.34;;;24.34;25.34
46638;BME280;32365;46.938;7.390;2023-02-21T12:54:15;95386.69;;;24.19;26.84
46638;BME280;32365;46.938;7.390;2023-02-21T12:56:46;95385.72;;;24.33;26.00
46638;BME280;32365;46.938;7.390;2023-02-21T12:59:19;95379.34;;;25.75;24.38
46638;BME280;32365;46.938;7.390;2023-02-21T13:01:48;95379.84;;;24.27;26.07
46638;BME280;32365;46.938;7.390;2023-02-21T13:04:21;95369.31;;;23.30;27.59
46638;BME280;32365;46.938;7.390;2023-02-21T13:06:52;95369.75;;;24.11;26.53
46638;BME280;32365;46.938;7.390;2023-02-21T13:09:27;95368.00;;;24.72;26.01
46638;BME280;32365;46.938;7.390;2023-02-21T13:12:00;95362.03;;;22.78;29.10
46638;BME280;32365;46.938;7.390;2023-02-21T13:14:31;95359.75;;;21.91;30.47
46638;BME280;32365;46.938;7.390;2023-02-21T13:16:59;95348.66;;;24.41;26.53
46638;BME280;32365;46.938;7.390;2023-02-21T13:19:34;95343.03;;;23.95;27.72
46638;BME280;32365;46.938;7.390;2023-02-21T13:22:25;95338.47;;;22.90;28.69
46638;BME280;32365;46.938;7.390;2023-02-21T13:25:19;95335.50;;;24.24;26.16
46638;BME280;32365;46.938;7.390;2023-02-21T13:27:54;95334.69;;;25.64;24.38
46638;BME280;32365;46.938;7.390;2023-02-21T13:30:26;95332.28;;;25.08;25.22
46638;BME280;32365;46.938;7.390;2023-02-21T13:32:56;95324.31;;;24.96;25.36
46638;BME280;32365;46.938;7.390;2023-02-21T13:35:31;95336.69;;;21.96;29.91
46638;BME280;32365;46.938;7.390;2023-02-21T13:38:00;95327.44;;;22.39;27.95
46638;BME280;32365;46.938;7.390;2023-02-21T13:40:33;95331.91;;;22.39;27.75
46638;BME280;32365;46.938;7.390;2023-02-21T13:43:04;95317.50;;;20.44;30.52
46638;BME280;32365;46.938;7.390;2023-02-21T13:45:31;95323.28;;;21.61;30.40
46638;BME280;32365;46.938;7.390;2023-02-21T13:48:27;95312.59;;;19.95;32.15
46638;BME280;32365;46.938;7.390;2023-02-21T13:50:56;95312.63;;;18.81;33.46
46638;BME280;32365;46.938;7.390;2023-02-21T13:53:25;95306.19;;;20.29;31.02
46638;BME280;32365;46.938;7.390;2023-02-21T13:56:38;95295.41;;;19.51;32.76
46638;BME280;32365;46.938;7.390;2023-02-21T13:59:30;95312.91;;;21.42;31.62
46638;BME280;32365;46.938;7.390;2023-02-21T14:02:17;95300.16;;;19.82;33.62
46638;BME280;32365;46.938;7.390;2023-02-21T14:05:04;95291.28;;;19.45;35.01
46638;BME280;32365;46.938;7.390;2023-02-21T14:07:44;95291.50;;;20.14;34.02
46638;BME280;32365;46.938;7.390;2023-02-21T14:10:21;95291.66;;;21.38;31.31
46638;BME280;32365;46.938;7.390;2023-02-21T14:12:53;95291.09;;;19.74;32.82
46638;BME280;32365;46.938;7.390;2023-02-21T14:15:20;95280.88;;;19.40;33.32
46638;BME280;32365;46.938;7.390;2023-02-21T14:17:50;95284.09;;;18.06;36.54
46638;BME280;32365;46.938;7.390;2023-02-21T14:20:19;95289.00;;;17.78;38.19
46638;BME280;32365;46.938;7.390;2023-02-21T14:22:50;95285.19;;;18.73;36.87
46638;BME280;32365;46.938;7.390;2023-02-21T14:25:20;95282.19;;;18.36;37.14
46638;BME280;32365;46.938;7.390;2023-02-21T14:27:48;95275.28;;;18.45;37.83
46638;BME280;32365;46.938;7.390;2023-02-21T14:30:30;95279.78;;;18.15;37.74
46638;BME280;32365;46.938;7.390;2023-02-21T14:33:08;95282.00;;;17.39;39.19
46638;BME280;32365;46.938;7.390;2023-02-21T14:35:37;95275.22;;;16.27;40.17
46638;BME280;32365;46.938;7.390;2023-02-21T14:38:19;95279.47;;;16.03;40.16
46638;BME280;32365;46.938;7.390;2023-02-21T14:40:57;95277.13;;;15.23;42.63
46638;BME280;32365;46.938;7.390;2023-02-21T14:43:36;95270.56;;;15.00;43.83
46638;BME280;32365;46.938;7.390;2023-02-21T14:46:28;95264.31;;;14.96;44.57
46638;BME280;32365;46.938;7.390;2023-02-21T14:49:12;95263.19;;;14.76;44.81
46638;BME280;32365;46.938;7.390;2023-02-21T14:55:10;95263.53;;;15.06;43.25
46638;BME280;32365;46.938;7.390;2023-02-21T14:57:50;95256.50;;;15.58;44.28
46638;BME280;32365;46.938;7.390;2023-02-21T15:00:24;95254.66;;;15.64;43.35
46638;BME280;32365;46.938;7.390;2023-02-21T15:02:55;95249.97;;;15.71;41.93
46638;BME280;32365;46.938;7.390;2023-02-21T15:05:30;95255.47;;;15.64;40.69
46638;BME280;32365;46.938;7.390;2023-02-21T15:08:04;95251.78;;;16.02;41.94
46638;BME280;32365;46.938;7.390;2023-02-21T15:10:38;95256.53;;;16.65;41.15
46638;BME280;32365;46.938;7.390;2023-02-21T15:13:05;95248.03;;;16.94;40.01
46638;BME280;32365;46.938;7.390;2023-02-21T15:15:34;95239.72;;;16.76;39.41
46638;BME280;32365;46.938;7.390;2023-02-21T15:18:04;95248.09;;;16.08;41.40
46638;BME280;32365;46.938;7.390;2023-02-21T15:20:32;95253.13;;;16.65;40.52
46638;BME280;32365;46.938;7.390;2023-02-21T15:23:01;95248.59;;;16.25;40.04
46638;BME280;32365;46.938;7.390;2023-02-21T15:25:31;95245.75;;;16.11;40.61
46638;BME280;32365;46.938;7.390;2023-02-21T15:28:00;95248.03;;;16.34;40.72
46638;BME280;32365;46.938;7.390;2023-02-21T15:30:34;95235.78;;;16.84;39.30
46638;BME280;32365;46.938;7.390;2023-02-21T15:33:06;95241.88;;;16.69;40.12
46638;BME280;32365;46.938;7.390;2023-02-21T15:35:35;95231.19;;;15.90;40.96
46638;BME280;32365;46.938;7.390;2023-02-21T15:38:05;95232.50;;;15.51;41.57
46638;BME280;32365;46.938;7.390;2023-02-21T15:40:34;95232.22;;;15.83;40.71
46638;BME280;32365;46.938;7.390;2023-02-21T15:43:02;95233.56;;;15.65;39.96
46638;BME280;32365;46.938;7.390;2023-02-21T15:45:36;95219.72;;;15.54;39.32
46638;BME280;32365;46.938;7.390;2023-02-21T15:48:05;95224.69;;;15.66;40.32
46638;BME280;32365;46.938;7.390;2023-02-21T15:50:34;95225.47;;;15.41;41.09
46638;BME280;32365;46.938;7.390;2023-02-21T15:53:16;95219.69;;;15.96;40.07
46638;BME280;32365;46.938;7.390;2023-02-21T15:55:46;95216.31;;;15.75;40.26
46638;BME280;32365;46.938;7.390;2023-02-21T15:58:19;95220.75;;;15.74;40.81
46638;BME280;32365;46.938;7.390;2023-02-21T16:00:46;95223.13;;;15.50;41.86
46638;BME280;32365;46.938;7.390;2023-02-21T16:03:31;95219.41;;;14.73;43.57
46638;BME280;32365;46.938;7.390;2023-02-21T16:06:20;95218.47;;;14.31;43.53
46638;BME280;32365;46.938;7.390;2023-02-21T16:08:54;95224.59;;;13.94;45.04
46638;BME280;32365;46.938;7.390;2023-02-21T16:11:36;95220.16;;;13.95;45.29
46638;BME280;32365;46.938;7.390;2023-02-21T16:14:04;95208.03;;;13.68;45.67
46638;BME280;32365;46.938;7.390;2023-02-21T16:16:32;95206.94;;;13.26;46.52
46638;BME280;32365;46.938;7.390;2023-02-21T16:18:59;95209.38;;;13.05;47.99
46638;BME280;32365;46.938;7.390;2023-02-21T16:21:27;95217.91;;;13.01;47.53
46638;BME280;32365;46.938;7.390;2023-02-21T16:23:54;95211.13;;;13.00;49.40
46638;BME280;32365;46.938;7.390;2023-02-21T16:26:23;95215.13;;;12.80;49.30
46638;BME280;32365;46.938;7.390;2023-02-21T16:28:55;95218.84;;;12.89;48.65
46638;BME280;32365;46.938;7.390;2023-02-21T16:31:26;95216.94;;;12.57;49.10
46638;BME280;32365;46.938;7.390;2023-02-21T16:33:52;95217.66;;;12.75;49.74
46638;BME280;32365;46.938;7.390;2023-02-21T16:36:23;95219.53;;;12.80;49.13
46638;BME280;32365;46.938;7.390;2023-02-21T16:38:49;95208.97;;;12.64;50.31
46638;BME280;32365;46.938;7.390;2023-02-21T16:41:16;95216.00;;;12.41;49.92
46638;BME280;32365;46.938;7.390;2023-02-21T16:43:42;95216.09;;;12.24;49.77
46638;BME280;32365;46.938;7.390;2023-02-21T16:46:11;95214.00;;;12.04;51.42
46638;BME280;32365;46.938;7.390;2023-02-21T16:48:39;95210.66;;;12.04;50.17
46638;BME280;32365;46.938;7.390;2023-02-21T16:51:10;95207.66;;;11.95;51.48
46638;BME280;32365;46.938;7.390;2023-02-21T16:53:39;95213.25;;;11.86;53.10
46638;BME280;32365;46.938;7.390;2023-02-21T16:56:06;95208.16;;;11.75;53.43
46638;BME280;32365;46.938;7.390;2023-02-21T16:58:36;95208.91;;;11.36;53.63
46638;BME280;32365;46.938;7.390;2023-02-21T17:01:05;95204.91;;;11.28;54.56
46638;BME280;32365;46.938;7.390;2023-02-21T17:03:33;95208.34;;;11.00;56.33
46638;BME280;32365;46.938;7.390;2023-02-21T17:06:00;95208.44;;;10.88;56.79
46638;BME280;32365;46.938;7.390;2023-02-21T17:08:27;95202.31;;;10.65;56.38
46638;BME280;32365;46.938;7.390;2023-02-21T17:10:54;95208.56;;;10.81;57.32
46638;BME280;32365;46.938;7.390;2023-02-21T17:13:21;95204.03;;;10.59;58.90
46638;BME280;32365;46.938;7.390;2023-02-21T17:15:47;95208.38;;;10.30;61.06
46638;BME280;32365;46.938;7.390;2023-02-21T17:18:14;95203.25;;;10.18;60.33
46638;BME280;32365;46.938;7.390;2023-02-21T17:20:41;95208.78;;;9.98;61.64
46638;BME280;32365;46.938;7.390;2023-02-21T17:23:08;95207.78;;;9.99;62.26
46638;BME280;32365;46.938;7.390;2023-02-21T17:25:34;95199.47;;;9.97;62.04
46638;BME280;32365;46.938;7.390;2023-02-21T17:28:01;95203.84;;;9.84;62.89
46638;BME280;32365;46.938;7.390;2023-02-21T17:30:28;95204.78;;;9.66;62.24
46638;BME280;32365;46.938;7.390;2023-02-21T17:32:55;95200.28;;;9.74;62.96
46638;BME280;32365;46.938;7.390;2023-02-21T17:35:22;95205.81;;;9.53;63.75
46638;BME280;32365;46.938;7.390;2023-02-21T17:37:50;95203.09;;;9.48;65.34
46638;BME280;32365;46.938;7.390;2023-02-21T17:40:18;95199.38;;;9.32;65.13
46638;BME280;32365;46.938;7.390;2023-02-21T17:42:45;95202.88;;;9.26;65.94
46638;BME280;32365;46.938;7.390;2023-02-21T17:45:14;95207.53;;;9.05;67.66
46638;BME280;32365;46.938;7.390;2023-02-21T17:47:41;95210.56;;;9.02;67.49
46638;BME280;32365;46.938;7.390;2023-02-21T17:50:08;95208.63;;;8.98;67.76
46638;BME280;32365;46.938;7.390;2023-02-21T17:52:34;95207.72;;;8.92;69.12
46638;BME280;32365;46.938;7.390;2023-02-21T17:55:03;95216.53;;;8.72;68.59
46638;BME280;32365;46.938;7.390;2023-02-21T17:57:32;95219.94;;;8.85;68.43
46638;BME280;32365;46.938;7.390;2023-02-21T18:00:02;95218.16;;;8.85;68.17
46638;BME280;32365;46.938;7.390;2023-02-21T18:02:29;95211.78;;;8.88;68.75
46638;BME280;32365;46.938;7.390;2023-02-21T18:04:56;95220.28;;;8.76;69.17
46638;BME280;32365;46.938;7.390;2023-02-21T18:07:23;95217.03;;;8.51;69.61
46638;BME280;32365;46.938;7.390;2023-02-21T18:09:52;95216.16;;;8.38;70.40
46638;BME280;32365;46.938;7.390;2023-02-21T18:12:20;95214.78;;;8.54;70.19
46638;BME280;32365;46.938;7.390;2023-02-21T18:14:46;95216.34;;;8.37;70.74
46638;BME280;32365;46.938;7.390;2023-02-21T18:17:13;95216.59;;;8.35;70.89
46638;BME280;32365;46.938;7.390;2023-02-21T18:19:39;95218.47;;;8.28;71.64
46638;BME280;32365;46.938;7.390;2023-02-21T18:22:06;95219.91;;;8.05;71.57
46638;BME280;32365;46.938;7.390;2023-02-21T18:24:33;95219.97;;;8.17;71.56
46638;BME280;32365;46.938;7.390;2023-02-21T18:27:00;95225.13;;;8.17;71.22
46638;BME280;32365;46.938;7.390;2023-02-21T18:29:28;95222.28;;;8.07;71.75
46638;BME280;32365;46.938;7.390;2023-02-21T18:31:56;95226.13;;;8.16;72.13
46638;BME280;32365;46.938;7.390;2023-02-21T18:34:23;95225.50;;;8.02;73.20
46638;BME280;32365;46.938;7.390;2023-02-21T18:36:51;95222.84;;;8.09;72.52
46638;BME280;32365;46.938;7.390;2023-02-21T18:39:20;95225.56;;;7.95;73.26
46638;BME280;32365;46.938;7.390;2023-02-21T18:41:47;95222.13;;;7.83;73.46
46638;BME280;32365;46.938;7.390;2023-02-21T18:44:14;95221.94;;;7.78;73.82
46638;BME280;32365;46.938;7.390;2023-02-21T18:46:49;95223.66;;;7.65;74.15
46638;BME280;32365;46.938;7.390;2023-02-21T18:49:18;95217.56;;;7.60;73.59
46638;BME280;32365;46.938;7.390;2023-02-21T18:51:44;95223.06;;;7.45;74.21
46638;BME280;32365;46.938;7.390;2023-02-21T18:54:11;95222.16;;;7.32;74.92
46638;BME280;32365;46.938;7.390;2023-02-21T18:56:37;95222.56;;;7.29;75.21
46638;BME280;32365;46.938;7.390;2023-02-21T18:59:03;95223.63;;;7.47;74.87
46638;BME280;32365;46.938;7.390;2023-02-21T19:01:30;95225.63;;;7.45;75.87
46638;BME280;32365;46.938;7.390;2023-02-21T19:03:58;95221.19;;;7.52;74.93
46638;BME280;32365;46.938;7.390;2023-02-21T19:06:27;95225.41;;;7.46;74.57
46638;BME280;32365;46.938;7.390;2023-02-21T19:08:54;95228.56;;;7.48;74.53
46638;BME280;32365;46.938;7.390;2023-02-21T19:11:20;95225.84;;;7.43;74.81
46638;BME280;32365;46.938;7.390;2023-02-21T19:13:47;95225.03;;;7.43;74.50
46638;BME280;32365;46.938;7.390;2023-02-21T19:16:14;95225.38;;;7.28;74.94
46638;BME280;32365;46.938;7.390;2023-02-21T19:18:41;95225.81;;;7.18;75.61
46638;BME280;32365;46.938;7.390;2023-02-21T19:21:09;95230.34;;;7.22;75.41
46638;BME280;32365;46.938;7.390;2023-02-21T19:23:36;95224.66;;;7.20;75.57
46638;BME280;32365;46.938;7.390;2023-02-21T19:26:03;95227.03;;;7.15;75.93
46638;BME280;32365;46.938;7.390;2023-02-21T19:28:30;95232.19;;;7.15;75.52
46638;BME280;32365;46.938;7.390;2023-02-21T19:30:56;95232.50;;;7.00;76.19
46638;BME280;32365;46.938;7.390;2023-02-21T19:33:25;95241.22;;;6.99;76.61
46638;BME280;32365;46.938;7.390;2023-02-21T19:35:51;95230.56;;;6.96;76.55
46638;BME280;32365;46.938;7.390;2023-02-21T19:38:19;95237.31;;;6.90;76.69
46638;BME280;32365;46.938;7.390;2023-02-21T19:40:45;95233.75;;;6.91;77.00
46638;BME280;32365;46.938;7.390;2023-02-21T19:43:12;95238.63;;;6.99;76.98
46638;BME280;32365;46.938;7.390;2023-02-21T19:45:39;95237.59;;;7.07;76.59
46638;BME280;32365;46.938;7.390;2023-02-21T19:48:07;95240.22;;;7.00;76.70
46638;BME280;32365;46.938;7.390;2023-02-21T19:50:34;95245.09;;;7.08;76.69
46638;BME280;32365;46.938;7.390;2023-02-21T19:53:01;95248.00;;;7.19;76.52
46638;BME280;32365;46.938;7.390;2023-02-21T19:55:29;95244.59;;;7.25;76.49
46638;BME280;32365;46.938;7.390;2023-02-21T19:57:56;95237.66;;;7.26;76.44
46638;BME280;32365;46.938;7.390;2023-02-21T20:00:22;95244.84;;;7.17;76.82
46638;BME280;32365;46.938;7.390;2023-02-21T20:02:51;95244.53;;;7.06;77.30
46638;BME280;32365;46.938;7.390;2023-02-21T20:05:18;95244.41;;;6.95;77.84
46638;BME280;32365;46.938;7.390;2023-02-21T20:07:45;95245.03;;;6.90;78.64
46638;BME280;32365;46.938;7.390;2023-02-21T20:10:12;95249.94;;;6.98;78.35
46638;BME280;32365;46.938;7.390;2023-02-21T20:12:40;95249.19;;;6.91;78.69
46638;BME280;32365;46.938;7.390;2023-02-21T20:15:06;95244.50;;;6.81;79.25
46638;BME280;32365;46.938;7.390;2023-02-21T20:17:34;95249.56;;;6.95;78.89
46638;BME280;32365;46.938;7.390;2023-02-21T20:20:02;95250.53;;;7.00;78.24
46638;BME280;32365;46.938;7.390;2023-02-21T20:22:31;95241.16;;;7.06;78.04
46638;BME280;32365;46.938;7.390;2023-02-21T20:24:58;95251.16;;;7.21;77.45
46638;BME280;32365;46.938;7.390;2023-02-21T20:27:24;95251.00;;;7.16;77.44
46638;BME280;32365;46.938;7.390;2023-02-21T20:29:52;95247.56;;;6.97;78.54
46638;BME280;32365;46.938;7.390;2023-02-21T20:32:19;95245.50;;;6.73;79.51